createdAt,value
2022-12-18T00:00:09.848Z,5.70
2022-12-18T00:03:05.630Z,6.10
2022-12-18T00:05:34.060Z,6.30
2022-12-18T00:08:02.252Z,6.60
2022-12-18T00:10:30.617Z,7.00
2022-12-18T00:12:58.584Z,6.50
2022-12-18T00:15:26.486Z,6.50
2022-12-18T00:17:54.609Z,6.40
2022-12-18T00:20:26.614Z,6.50
2022-12-18T00:22:56.164Z,6.60
2022-12-18T00:25:24.912Z,6.80
2022-12-18T00:27:52.839Z,6.60
2022-12-18T00:30:21.234Z,7.10
2022-12-18T00:32:49.230Z,7.20
2022-12-18T00:35:17.476Z,6.60
2022-12-18T00:37:45.559Z,7.40
2022-12-18T00:40:14.319Z,6.90
2022-12-18T00:42:57.426Z,6.60
2022-12-18T00:45:27.841Z,6.60
2022-12-18T00:47:57.377Z,7.10
2022-12-18T00:50:26.982Z,6.70
2022-12-18T00:52:54.974Z,6.60
2022-12-18T00:55:23.760Z,6.90
2022-12-18T00:57:53.880Z,7.10
2022-12-18T01:00:23.281Z,7.60
2022-12-18T01:02:51.469Z,7.20
2022-12-18T01:05:19.939Z,7.80
2022-12-18T01:07:48.059Z,7.90
2022-12-18T01:10:16.177Z,7.70
2022-12-18T01:12:44.664Z,7.70
2022-12-18T01:15:15.585Z,7.60
2022-12-18T01:17:44.548Z,7.40
2022-12-18T01:20:13.818Z,7.40
2022-12-18T01:22:41.858Z,8.20
2022-12-18T01:25:10.375Z,8.00
2022-12-18T01:27:38.524Z,7.70
2022-12-18T01:30:08.108Z,8.00
2022-12-18T01:32:36.042Z,8.20
2022-12-18T01:35:04.582Z,7.80
2022-12-18T01:37:32.486Z,8.80
2022-12-18T01:40:00.642Z,8.20
2022-12-18T01:42:28.720Z,8.40
2022-12-18T01:45:07.805Z,8.00
2022-12-18T01:47:51.104Z,8.40
2022-12-18T01:50:25.872Z,7.90
2022-12-18T01:53:15.342Z,8.80
2022-12-18T01:55:59.905Z,8.80
2022-12-18T02:01:10.472Z,8.30
2022-12-18T02:03:39.209Z,8.40
2022-12-18T02:06:41.051Z,8.50
2022-12-18T02:09:14.839Z,8.60
2022-12-18T02:12:10.281Z,8.30
2022-12-18T02:15:08.137Z,8.40
2022-12-18T02:17:47.477Z,8.80
2022-12-18T02:21:12.663Z,8.60
2022-12-18T02:23:57.716Z,8.80
2022-12-18T02:26:39.147Z,8.80
2022-12-18T02:29:15.404Z,8.80
2022-12-18T02:31:52.572Z,9.20
2022-12-18T02:34:26.911Z,8.90
2022-12-18T02:36:59.563Z,8.80
2022-12-18T02:39:31.974Z,9.70
2022-12-18T02:42:08.863Z,8.80
2022-12-18T02:44:46.593Z,9.10
2022-12-18T02:47:21.515Z,9.00
2022-12-18T02:50:22.105Z,9.50
2022-12-18T02:53:25.765Z,8.80
2022-12-18T02:56:18.668Z,8.80
2022-12-18T02:59:03.293Z,8.70
2022-12-18T03:01:59.474Z,9.10
2022-12-18T03:04:51.849Z,9.10
2022-12-18T03:07:45.644Z,9.20
2022-12-18T03:10:25.624Z,9.30
2022-12-18T03:13:05.778Z,9.30
2022-12-18T03:15:57.816Z,9.40
2022-12-18T03:18:39.878Z,9.00
2022-12-18T03:21:12.737Z,9.40
2022-12-18T03:23:48.774Z,9.00
2022-12-18T03:26:23.477Z,9.00
2022-12-18T03:29:00.942Z,9.20
2022-12-18T03:31:36.799Z,8.90
2022-12-18T03:34:20.978Z,9.20
2022-12-18T03:36:49.364Z,9.10
2022-12-18T03:39:17.637Z,9.20
2022-12-18T03:42:14.067Z,9.50
2022-12-18T03:45:01.367Z,9.40
2022-12-18T03:47:50.461Z,9.80
2022-12-18T03:50:51.116Z,9.40
2022-12-18T03:53:41.487Z,9.80
2022-12-18T03:56:12.586Z,9.00
2022-12-18T03:58:42.858Z,8.40
2022-12-18T04:01:24.349Z,9.00
2022-12-18T04:03:54.378Z,9.70
2022-12-18T04:06:22.852Z,9.80
2022-12-18T04:08:52.142Z,9.50
2022-12-18T04:11:22.263Z,9.50
2022-12-18T04:13:50.230Z,9.10
2022-12-18T04:16:23.830Z,9.30
2022-12-18T04:18:55.284Z,9.30
2022-12-18T04:21:23.905Z,9.90
2022-12-18T04:23:52.147Z,9.50
2022-12-18T04:26:21.950Z,9.40
2022-12-18T04:29:08.871Z,9.30
2022-12-18T04:31:37.907Z,9.30
2022-12-18T04:34:07.467Z,9.60
2022-12-18T04:36:39.476Z,9.10
2022-12-18T04:39:07.589Z,9.60
2022-12-18T04:41:35.679Z,9.50
2022-12-18T04:44:05.774Z,10.40
2022-12-18T04:46:33.950Z,10.30
2022-12-18T04:49:02.146Z,9.50
2022-12-18T04:51:30.014Z,8.80
2022-12-18T04:53:58.086Z,9.80
2022-12-18T04:56:26.162Z,10.20
2022-12-18T04:58:54.538Z,10.10
2022-12-18T05:01:22.663Z,9.50
2022-12-18T05:03:52.883Z,9.80
2022-12-18T05:06:21.192Z,9.30
2022-12-18T05:08:49.180Z,10.60
2022-12-18T05:11:17.589Z,9.60
2022-12-18T05:13:46.658Z,9.80
2022-12-18T05:16:15.089Z,9.90
2022-12-18T05:18:43.719Z,9.70
2022-12-18T05:21:11.728Z,9.70
2022-12-18T05:23:40.224Z,9.80
2022-12-18T05:26:18.321Z,9.50
2022-12-18T05:28:47.125Z,9.80
2022-12-18T05:31:16.058Z,10.00
2022-12-18T05:33:44.850Z,9.90
2022-12-18T05:36:13.231Z,9.30
2022-12-18T05:38:41.499Z,9.80
2022-12-18T05:41:10.626Z,10.00
2022-12-18T05:43:41.366Z,9.50
2022-12-18T05:46:15.785Z,9.90
2022-12-18T05:48:45.774Z,10.30
2022-12-18T05:51:17.951Z,9.20
2022-12-18T05:53:47.517Z,9.50
2022-12-18T05:56:20.565Z,10.10
2022-12-18T05:58:53.043Z,10.50
2022-12-18T06:01:26.163Z,10.00
2022-12-18T06:03:55.235Z,10.70
2022-12-18T06:06:27.680Z,10.10
2022-12-18T06:08:57.608Z,10.70
2022-12-18T06:11:28.221Z,9.40
2022-12-18T06:13:59.269Z,10.30
2022-12-18T06:16:29.834Z,10.10
2022-12-18T06:19:01.067Z,10.30
2022-12-18T06:21:31.560Z,10.40
2022-12-18T06:24:01.583Z,9.80
2022-12-18T06:26:29.602Z,9.80
2022-12-18T06:28:57.623Z,10.50
2022-12-18T06:31:27.403Z,10.50
2022-12-18T06:33:55.556Z,10.50
2022-12-18T06:36:23.683Z,10.30
2022-12-18T06:38:51.653Z,10.10
2022-12-18T06:41:22.478Z,10.40
2022-12-18T06:43:52.188Z,10.20
2022-12-18T06:46:22.730Z,10.20
2022-12-18T06:48:51.644Z,10.20
2022-12-18T06:51:24.996Z,10.10
2022-12-18T06:53:53.163Z,9.70
2022-12-18T06:56:21.472Z,9.90
2022-12-18T06:58:53.416Z,9.70
2022-12-18T07:01:23.051Z,10.20
2022-12-18T07:03:57.272Z,10.40
2022-12-18T07:06:29.419Z,10.00
2022-12-18T07:08:57.839Z,9.80
2022-12-18T07:11:26.314Z,10.10
2022-12-18T07:13:54.763Z,9.60
2022-12-18T07:16:25.740Z,9.00
2022-12-18T07:18:56.877Z,9.40
2022-12-18T07:21:26.544Z,8.50
2022-12-18T07:23:55.046Z,8.80
2022-12-18T07:26:23.937Z,8.70
2022-12-18T07:28:57.435Z,9.30
2022-12-18T07:31:27.786Z,9.30
2022-12-18T07:33:56.338Z,8.90
2022-12-18T07:36:24.710Z,8.90
2022-12-18T07:38:56.278Z,9.40
2022-12-18T07:41:24.351Z,9.70
2022-12-18T07:43:53.275Z,9.80
2022-12-18T07:46:21.793Z,9.20
2022-12-18T07:48:50.537Z,9.40
2022-12-18T07:51:20.242Z,9.20
2022-12-18T07:53:51.958Z,9.40
2022-12-18T07:56:27.659Z,9.50
2022-12-18T07:58:57.870Z,9.00
2022-12-18T08:01:26.830Z,9.10
2022-12-18T08:03:55.733Z,9.40
2022-12-18T08:06:24.857Z,9.80
2022-12-18T08:08:57.549Z,9.90
2022-12-18T08:11:28.920Z,9.50
2022-12-18T08:13:58.050Z,9.30
2022-12-18T08:16:26.700Z,9.40
2022-12-18T08:18:55.579Z,9.60
2022-12-18T08:21:30.689Z,9.40
2022-12-18T08:24:02.660Z,9.70
2022-12-18T08:26:32.825Z,9.90
2022-12-18T08:29:01.876Z,9.30
2022-12-18T08:31:32.070Z,9.60
2022-12-18T08:34:00.467Z,9.60
2022-12-18T08:36:28.471Z,9.50
2022-12-18T08:38:58.018Z,9.50
2022-12-18T08:41:26.919Z,9.00
2022-12-18T08:44:13.670Z,9.40
2022-12-18T08:46:44.903Z,9.80
2022-12-18T08:49:13.671Z,9.70
2022-12-18T08:51:41.831Z,9.40
2022-12-18T08:54:14.411Z,9.50
2022-12-18T08:56:42.688Z,9.70
2022-12-18T08:59:17.343Z,9.90
2022-12-18T09:01:48.452Z,9.50
2022-12-18T09:04:17.014Z,9.10
2022-12-18T09:06:45.006Z,9.30
2022-12-18T09:09:13.391Z,10.00
2022-12-18T09:11:41.357Z,9.90
2022-12-18T09:14:11.320Z,9.30
2022-12-18T09:16:39.362Z,9.70
2022-12-18T09:19:07.407Z,9.90
2022-12-18T09:21:42.195Z,8.90
2022-12-18T09:24:15.239Z,9.30
2022-12-18T09:26:45.013Z,9.30
2022-12-18T09:29:18.835Z,9.40
2022-12-18T09:31:48.301Z,9.60
2022-12-18T09:34:17.901Z,9.60
2022-12-18T09:36:46.033Z,9.40
2022-12-18T09:39:16.163Z,9.80
2022-12-18T09:41:55.985Z,9.50
2022-12-18T09:44:47.737Z,9.50
2022-12-18T09:47:27.351Z,10.10
2022-12-18T09:50:02.222Z,9.10
2022-12-18T09:52:46.491Z,8.90
2022-12-18T09:55:48.938Z,9.50
2022-12-18T09:58:58.083Z,8.70
2022-12-18T10:01:41.423Z,9.60
2022-12-18T10:04:12.011Z,9.30
2022-12-18T10:06:44.229Z,8.80
2022-12-18T10:09:15.506Z,8.90
2022-12-18T10:12:07.098Z,9.50
2022-12-18T10:14:57.476Z,8.80
2022-12-18T10:17:55.715Z,9.30
2022-12-18T10:20:47.980Z,9.00
2022-12-18T10:23:52.555Z,9.60
2022-12-18T10:26:21.194Z,9.70
2022-12-18T10:28:52.288Z,8.80
2022-12-18T10:31:25.062Z,9.60
2022-12-18T10:33:56.201Z,9.20
2022-12-18T10:36:25.868Z,9.50
2022-12-18T10:38:54.453Z,9.40
2022-12-18T10:41:26.855Z,9.40
2022-12-18T10:44:19.271Z,9.80
2022-12-18T10:46:51.584Z,8.80
2022-12-18T10:49:28.012Z,8.80
2022-12-18T10:52:27.109Z,9.50
2022-12-18T10:55:05.139Z,9.70
2022-12-18T10:57:41.829Z,9.50
2022-12-18T11:00:31.782Z,8.90
2022-12-18T11:03:00.046Z,8.60
2022-12-18T11:05:34.936Z,9.10
2022-12-18T11:08:03.722Z,9.10
2022-12-18T11:10:38.801Z,9.10
2022-12-18T11:13:21.156Z,8.90
2022-12-18T11:15:50.451Z,9.40
2022-12-18T11:18:31.796Z,9.10
2022-12-18T11:21:13.713Z,9.80
2022-12-18T11:23:53.846Z,9.30
2022-12-18T11:26:35.044Z,8.60
2022-12-18T11:29:16.729Z,9.80
2022-12-18T11:31:46.914Z,9.50
2022-12-18T11:34:30.285Z,10.30
2022-12-18T11:37:03.755Z,10.30
2022-12-18T11:39:39.683Z,9.60
2022-12-18T11:42:25.515Z,9.70
2022-12-18T11:45:09.353Z,9.50
2022-12-18T11:47:53.589Z,9.70
2022-12-18T11:50:33.232Z,9.90
2022-12-18T11:53:06.253Z,9.70
2022-12-18T11:56:18.942Z,9.40
2022-12-18T11:58:57.860Z,9.90
2022-12-18T12:01:56.450Z,9.10
2022-12-18T12:04:48.297Z,9.30
2022-12-18T12:07:52.515Z,9.40
2022-12-18T12:10:46.918Z,9.60
2022-12-18T12:13:29.697Z,9.20
2022-12-18T12:15:57.735Z,8.70
2022-12-18T12:18:53.641Z,9.20
2022-12-18T12:21:33.362Z,9.30
2022-12-18T12:24:33.897Z,8.80
2022-12-18T12:27:30.041Z,8.90
2022-12-18T12:30:10.380Z,8.90
2022-12-18T12:33:02.559Z,9.20
2022-12-18T12:35:49.027Z,8.70
2022-12-18T12:38:26.280Z,8.80
2022-12-18T12:41:03.993Z,9.00
2022-12-18T12:43:50.857Z,9.00
2022-12-18T12:46:23.097Z,8.70
2022-12-18T12:48:59.370Z,8.50
2022-12-18T12:51:34.817Z,9.20
2022-12-18T12:54:13.294Z,8.50
2022-12-18T12:56:53.842Z,8.90
2022-12-18T12:59:46.437Z,8.50
2022-12-18T13:02:37.172Z,8.60
2022-12-18T13:05:27.113Z,8.90
2022-12-18T13:08:22.574Z,8.40
2022-12-18T13:11:13.026Z,8.70
2022-12-18T13:13:54.084Z,8.30
2022-12-18T13:16:26.380Z,8.90
2022-12-18T13:19:00.487Z,8.40
2022-12-18T13:21:32.473Z,8.20
2022-12-18T13:24:30.730Z,9.20
2022-12-18T13:26:58.669Z,8.50
2022-12-18T13:29:46.569Z,8.60
2022-12-18T13:32:27.585Z,8.10
2022-12-18T13:35:21.533Z,9.00
2022-12-18T13:37:56.448Z,8.50
2022-12-18T13:40:40.179Z,8.60
2022-12-18T13:43:24.412Z,8.80
2022-12-18T13:46:43.170Z,8.20
2022-12-18T13:49:11.256Z,8.60
2022-12-18T13:51:56.840Z,9.00
2022-12-18T13:54:35.781Z,8.60
2022-12-18T13:57:07.572Z,8.60
2022-12-18T13:59:39.046Z,9.10
2022-12-18T14:02:17.767Z,9.10
2022-12-18T14:04:48.628Z,8.60
2022-12-18T14:07:21.998Z,8.40
2022-12-18T14:10:06.500Z,8.80
2022-12-18T14:13:02.468Z,7.90
2022-12-18T14:15:40.528Z,8.30
2022-12-18T14:18:27.024Z,8.30
2022-12-18T14:21:04.829Z,8.60
2022-12-18T14:23:38.840Z,7.90
2022-12-18T14:26:31.880Z,8.90
2022-12-18T14:29:19.411Z,8.70
2022-12-18T14:32:16.847Z,8.30
2022-12-18T14:34:56.329Z,8.30
2022-12-18T14:37:28.055Z,8.20
2022-12-18T14:40:11.419Z,8.50
2022-12-18T14:42:39.779Z,9.00
2022-12-18T14:45:43.413Z,8.80
2022-12-18T14:48:24.581Z,8.20
2022-12-18T14:51:03.720Z,8.10
2022-12-18T14:53:47.603Z,7.90
2022-12-18T14:56:23.203Z,8.00
2022-12-18T14:59:07.020Z,8.40
2022-12-18T15:02:06.355Z,8.20
2022-12-18T15:04:40.243Z,7.80
2022-12-18T15:07:25.138Z,8.10
2022-12-18T15:10:22.770Z,8.30
2022-12-18T15:13:09.675Z,8.50
2022-12-18T15:15:38.057Z,8.20
2022-12-18T15:18:21.218Z,7.90
2022-12-18T15:20:56.285Z,9.00
2022-12-18T15:23:50.099Z,8.00
2022-12-18T15:26:21.991Z,8.90
2022-12-18T15:29:01.018Z,8.50
2022-12-18T15:31:38.203Z,7.90
2022-12-18T15:34:09.005Z,8.30
2022-12-18T15:36:37.611Z,8.70
2022-12-18T15:39:06.795Z,7.90
2022-12-18T15:41:37.987Z,8.00
2022-12-18T15:44:26.911Z,8.20
2022-12-18T15:46:58.201Z,7.90
2022-12-18T15:49:26.630Z,8.20
2022-12-18T15:51:59.733Z,8.30
2022-12-18T15:54:46.623Z,7.90
2022-12-18T15:57:23.982Z,8.40
2022-12-18T15:59:55.188Z,8.20
2022-12-18T16:02:25.359Z,8.40
2022-12-18T16:04:55.183Z,8.30
2022-12-18T16:07:25.204Z,8.60
2022-12-18T16:09:54.208Z,8.40
2022-12-18T16:12:26.389Z,7.60
2022-12-18T16:14:54.443Z,8.10
2022-12-18T16:17:22.669Z,8.90
2022-12-18T16:19:50.629Z,8.10
2022-12-18T16:22:29.028Z,8.40
2022-12-18T16:24:58.719Z,8.10
2022-12-18T16:27:26.890Z,8.00
2022-12-18T16:29:57.312Z,7.50
2022-12-18T16:32:25.338Z,8.00
2022-12-18T16:34:53.569Z,8.40
2022-12-18T16:37:21.636Z,7.70
2022-12-18T16:39:49.516Z,8.20
2022-12-18T16:42:21.126Z,8.00
2022-12-18T16:44:50.716Z,7.80
2022-12-18T16:47:20.205Z,7.70
2022-12-18T16:49:51.919Z,8.60
2022-12-18T16:52:21.228Z,8.60
2022-12-18T16:54:49.605Z,9.10
2022-12-18T16:57:21.596Z,9.10
2022-12-18T16:59:54.027Z,9.40
2022-12-18T17:02:27.050Z,8.90
2022-12-18T17:04:58.740Z,10.10
2022-12-18T17:07:28.567Z,9.80
2022-12-18T17:09:57.040Z,9.70
2022-12-18T17:12:26.917Z,9.60
2022-12-18T17:14:54.968Z,9.20
2022-12-18T17:17:23.978Z,9.30
2022-12-18T17:19:52.912Z,10.10
2022-12-18T17:22:23.554Z,9.20
2022-12-18T17:24:51.711Z,9.40
2022-12-18T17:27:19.687Z,9.00
2022-12-18T17:29:49.029Z,9.70
2022-12-18T17:32:18.189Z,9.40
2022-12-18T17:34:47.040Z,10.20
2022-12-18T17:37:15.897Z,10.00
2022-12-18T17:39:45.006Z,9.80
2022-12-18T17:42:15.358Z,10.90
2022-12-18T17:44:45.085Z,9.30
2022-12-18T17:47:14.000Z,10.20
2022-12-18T17:49:42.217Z,10.20
2022-12-18T17:52:11.095Z,10.30
2022-12-18T17:54:42.069Z,10.30
2022-12-18T17:57:11.132Z,10.40
2022-12-18T17:59:39.283Z,10.70
2022-12-18T18:02:07.626Z,10.50
2022-12-18T18:04:36.839Z,10.20
2022-12-18T18:07:05.159Z,10.30
2022-12-18T18:09:33.233Z,10.50
2022-12-18T18:12:19.942Z,10.40
2022-12-18T18:14:48.024Z,10.20
2022-12-18T18:17:16.195Z,10.20
2022-12-18T18:19:49.591Z,10.50
2022-12-18T18:22:19.311Z,10.50
2022-12-18T18:24:48.919Z,11.30
2022-12-18T18:27:16.973Z,10.00
2022-12-18T18:29:45.677Z,10.60
2022-12-18T18:32:14.043Z,10.50
2022-12-18T18:34:42.414Z,10.90
2022-12-18T18:37:12.042Z,10.30
2022-12-18T18:39:40.505Z,11.20
2022-12-18T18:42:09.153Z,10.60
2022-12-18T18:44:37.164Z,10.80
2022-12-18T18:47:07.687Z,11.30
2022-12-18T18:49:37.812Z,11.10
2022-12-18T18:52:07.258Z,11.20
2022-12-18T18:54:35.508Z,11.30
2022-12-18T18:57:20.688Z,11.50
2022-12-18T18:59:49.686Z,11.10
2022-12-18T19:02:18.089Z,11.80
2022-12-18T19:04:47.114Z,10.70
2022-12-18T19:07:29.858Z,11.50
2022-12-18T19:10:05.108Z,10.80
2022-12-18T19:12:54.356Z,12.00
2022-12-18T19:15:23.334Z,11.30
2022-12-18T19:17:53.070Z,10.80
2022-12-18T19:20:21.542Z,11.40
2022-12-18T19:22:55.708Z,11.40
2022-12-18T19:25:38.452Z,11.60
2022-12-18T19:28:21.454Z,10.90
2022-12-18T19:30:55.349Z,11.20
2022-12-18T19:33:46.127Z,11.20
2022-12-18T19:36:21.327Z,12.00
2022-12-18T19:38:51.961Z,11.70
2022-12-18T19:41:22.094Z,11.20
2022-12-18T19:43:52.015Z,11.40
2022-12-18T19:46:23.051Z,11.80
2022-12-18T19:48:51.970Z,10.90
2022-12-18T19:51:24.842Z,12.10
2022-12-18T19:53:58.952Z,10.80
2022-12-18T19:56:33.603Z,11.60
2022-12-18T19:59:04.071Z,11.70
2022-12-18T20:01:32.704Z,11.60
2022-12-18T20:04:01.622Z,11.70
2022-12-18T20:06:35.213Z,11.20
2022-12-18T20:09:06.638Z,11.00
2022-12-18T20:11:38.830Z,11.70
2022-12-18T20:14:23.100Z,11.60
2022-12-18T20:16:53.399Z,11.10
2022-12-18T20:19:22.570Z,11.70
2022-12-18T20:21:50.953Z,12.30
2022-12-18T20:24:19.409Z,11.50
2022-12-18T20:26:48.730Z,10.90
2022-12-18T20:29:17.715Z,11.60
2022-12-18T20:31:45.804Z,11.30
2022-12-18T20:34:14.056Z,12.10
2022-12-18T20:36:43.067Z,11.70
2022-12-18T20:39:12.262Z,14.30
2022-12-18T20:41:41.866Z,15.20
2022-12-18T20:44:22.909Z,14.10
2022-12-18T20:47:02.313Z,14.90
2022-12-18T20:49:34.858Z,14.40
2022-12-18T20:52:03.347Z,15.00
2022-12-18T20:54:31.313Z,14.20
2022-12-18T20:56:59.383Z,13.40
2022-12-18T20:59:28.082Z,14.40
2022-12-18T21:01:56.569Z,14.30
2022-12-18T21:04:25.543Z,14.20
2022-12-18T21:07:00.536Z,14.00
2022-12-18T21:09:37.419Z,13.60
2022-12-18T21:12:40.579Z,13.20
2022-12-18T21:15:16.402Z,13.00
2022-12-18T21:17:45.391Z,12.90
2022-12-18T21:20:17.968Z,12.00
2022-12-18T21:22:49.588Z,12.20
2022-12-18T21:25:18.343Z,12.00
2022-12-18T21:27:47.077Z,12.00
2022-12-18T21:30:15.264Z,11.70
2022-12-18T21:32:43.547Z,11.80
2022-12-18T21:35:11.746Z,12.10
2022-12-18T21:37:40.405Z,11.40
2022-12-18T21:40:09.653Z,11.60
2022-12-18T21:42:56.126Z,11.00
2022-12-18T21:45:24.193Z,10.30
2022-12-18T21:47:52.348Z,10.60
2022-12-18T21:50:20.542Z,10.50
2022-12-18T21:52:48.555Z,10.40
2022-12-18T21:55:16.660Z,10.40
2022-12-18T21:57:44.655Z,10.20
2022-12-18T22:00:18.978Z,10.20
2022-12-18T22:02:59.912Z,10.30
2022-12-18T22:05:37.958Z,9.60
2022-12-18T22:08:07.081Z,10.00
2022-12-18T22:10:36.249Z,10.20
2022-12-18T22:13:07.319Z,9.20
2022-12-18T22:15:35.355Z,10.20
2022-12-18T22:18:03.738Z,9.50
2022-12-18T22:20:32.951Z,10.20
2022-12-18T22:23:05.887Z,10.20
2022-12-18T22:25:38.401Z,10.00
2022-12-18T22:28:26.756Z,9.40
2022-12-18T22:30:59.530Z,9.80
2022-12-18T22:33:28.553Z,9.20
2022-12-18T22:35:56.600Z,9.20
2022-12-18T22:38:24.591Z,9.20
2022-12-18T22:40:52.445Z,9.30
2022-12-18T22:43:20.376Z,8.60
2022-12-18T22:45:49.188Z,9.30
2022-12-18T22:48:17.414Z,9.00
2022-12-18T22:50:45.573Z,8.70
2022-12-18T22:53:13.709Z,8.20
2022-12-18T22:55:41.683Z,8.60
2022-12-18T22:58:09.753Z,8.80
2022-12-18T23:00:37.928Z,8.30
2022-12-18T23:03:07.252Z,8.60
2022-12-18T23:05:35.463Z,8.00
2022-12-18T23:08:03.783Z,7.70
2022-12-18T23:10:31.854Z,7.80
2022-12-18T23:12:59.731Z,7.90
2022-12-18T23:15:28.515Z,8.10
2022-12-18T23:17:58.975Z,8.00
2022-12-18T23:20:27.779Z,8.10
2022-12-18T23:22:56.005Z,8.00
2022-12-18T23:25:23.972Z,7.40
2022-12-18T23:27:51.888Z,8.00
2022-12-18T23:30:20.013Z,7.70
2022-12-18T23:32:48.494Z,7.20
2022-12-18T23:35:18.000Z,7.70
2022-12-18T23:38:03.935Z,7.60
2022-12-18T23:40:32.272Z,6.90
2022-12-18T23:43:00.662Z,7.90
2022-12-18T23:45:29.144Z,7.70
2022-12-18T23:47:57.615Z,7.40
2022-12-18T23:50:28.866Z,6.50
2022-12-18T23:53:04.952Z,7.30
2022-12-18T23:55:43.460Z,7.20
2022-12-18T23:58:20.992Z,6.90
